x

8454000 - Providence, Ri (foxr1) Weather Station

12:30am - Sat 28th May 2016 All times are EDT. -4 hours from GMT.

  • Wind
    9mph, 14mph gusts
  • Sea Temp 61°f
  • Air Temp 69°f
  • Sea Pressure 1017.5mb
  • 8454000 - Providence, Ri
  • 8454000 - Providence, Ri

More Historic Weather Station data

Upgrade to MSW Pro to gain access to the past 30 days of data for over 8000 Wavebouys and Weather Stations around the globe.

Join Pro

Comparision Forecast

View Surf forecast
   
Sat 05/28 12:30am 9 14 mph 1017.5mb 61f 69f
12:24am 8 15 mph 1017.6mb 61f 69f
12:18am 7 13 mph 1017.7mb 61f 69f
12:12am 7 13 mph 1017.8mb 61f 69f
12:06am 7 9 mph 1017.9mb 61f 69f
12:00am 7 10 mph 1017.8mb 61f 69f
Fri 05/27 11:54pm 8 11 mph 1017.7mb 61f 69f
11:48pm  -  mph 1017.8mb 61f 69f
11:42pm  -  mph 1017.7mb 61f 69f
11:36pm  -  mph 1017.7mb 61f 69f
11:30pm 8 11 mph 1017.6mb 61f 69f
11:24pm 6 11 mph 1017.5mb 61f 69f
11:18pm 7 11 mph 1017.5mb 61f 69f
11:12pm  -  mph 1017.5mb 61f -
11:06pm  -  mph 1017.4mb 61f -
11:00pm 11 15 mph 1017.5mb 61f -
10:54pm 5 11 mph 1017.5mb 61f -
10:48pm  -  mph - 61f -
10:42pm  -  mph - 61f -
10:36pm  -  mph - 61f -
10:30pm  -  mph 1017.4mb - -
10:24pm  -  mph 1017.4mb - -
10:18pm  -  mph 1017.4mb - -
10:12pm  -  mph 1017.5mb - 70f
10:06pm  -  mph 1017.5mb - 69f
10:00pm 7 10 mph 1017.5mb - -
9:54pm 8 13 mph 1017.5mb - -
9:48pm 7 11 mph 1017.4mb - -
9:42pm  -  mph 1017.3mb 62f -
9:36pm  -  mph 1017.3mb 62f -
9:30pm 10 15 mph 1017.4mb 62f -
9:24pm 13 16 mph 1017.3mb 62f -
9:18pm  -  mph 1017.2mb 62f -
9:12pm  -  mph 1017mb 62f -
9:06pm  -  mph 1017.1mb 62f -
9:00pm 14 17 mph 1017.1mb - -
8:54pm 13 14 mph 1017.1mb - -
8:48pm 13 16 mph 1017mb - -
8:42pm  -  mph 1016.8mb 62f -
8:36pm  -  mph 1016.7mb 62f -
8:30pm 14 17 mph 1016.6mb 62f -
8:24pm 14 16 mph 1016.6mb 62f -
8:18pm  -  mph - 62f 67f
8:12pm  -  mph - 62f -
8:06pm  -  mph - 62f -
8:00pm  -  mph 1016.4mb 62f -
7:54pm  -  mph 1016.4mb 62f -
7:48pm  -  mph 1016.4mb 62f -
7:42pm  -  mph 1016.5mb 62f -
7:36pm  -  mph 1016.4mb 62f -
7:30pm 7 14 mph 1016.4mb 62f -
7:24pm 11 15 mph 1016.4mb 62f -
7:18pm  -  mph 1016.4mb 62f 79f
7:12pm  -  mph 1016.3mb 62f 79f
7:06pm  -  mph 1016.3mb 63f 79f
7:00pm 10 15 mph 1016.4mb - -
6:54pm 11 16 mph 1016.5mb - -
6:48pm 13 18 mph 1016.5mb - -
6:42pm 14 20 mph 1016.5mb - -
6:36pm 13 17 mph 1016.4mb - -
6:30pm 11 18 mph 1016.4mb 63f -
6:24pm 13 20 mph 1016.4mb 63f -
6:18pm  -  mph 1016.3mb 63f -
6:12pm  -  mph 1016.3mb 63f -
6:06pm  -  mph 1016.3mb 63f -
6:00pm  -  mph 1016.2mb - -
5:54pm  -  mph 1016.2mb - -
5:48pm  -  mph 1016.2mb 63f -
5:42pm  -  mph 1016.1mb 63f -
5:36pm  -  mph 1016.2mb 63f -
5:30pm 17 21 mph 1016.2mb 63f 71f
5:24pm 14 22 mph 1016.2mb 63f 71f
5:18pm 14 21 mph 1016.2mb 63f 72f
5:12pm 15 17 mph 1016.3mb 63f 73f
5:06pm 15 21 mph 1016.2mb 63f 73f
5:00pm 15 20 mph 1016.3mb 62f 73f
4:54pm 17 20 mph 1016.3mb 62f 73f
4:48pm 18 21 mph 1016.4mb 62f 73f
4:42pm 17 21 mph 1016.4mb 62f 73f
4:36pm 16 20 mph 1016.4mb 62f 73f
4:30pm 15 20 mph 1016.3mb 62f 74f
4:24pm 16 20 mph 1016.3mb 62f 73f
4:18pm 14 18 mph 1016.3mb 62f 73f
4:12pm 15 21 mph 1016.3mb 62f 72f
4:06pm 15 18 mph 1016.4mb 62f 71f
4:00pm 15 20 mph 1016.5mb 62f 71f
3:54pm 17 21 mph 1016.5mb 62f 70f
3:48pm 15 18 mph 1016.6mb 62f 70f
3:42pm 14 17 mph 1016.7mb 62f 71f
3:36pm 13 17 mph 1016.7mb 62f 70f
3:30pm 14 17 mph 1016.8mb 61f 70f
3:24pm 14 18 mph 1016.8mb 61f 70f
3:18pm 14 20 mph 1016.8mb 61f 70f
3:12pm 16 18 mph 1016.8mb 61f 70f
3:06pm 15 18 mph 1017mb 61f 70f
3:00pm 13 17 mph 1017mb 61f 70f
2:54pm 14 21 mph 1017.1mb 61f 69f
2:48pm 15 20 mph 1017.1mb 61f 69f
2:42pm 15 20 mph 1017mb 61f 69f
2:36pm 14 18 mph 1017.1mb 61f 69f
2:30pm 11 17 mph 1017.1mb 60f 69f
2:24pm 14 17 mph 1017.2mb 60f 69f
2:18pm 15 18 mph 1017.1mb 60f 69f
2:12pm 16 20 mph 1017.1mb 60f 69f
2:06pm 18 21 mph 1017.2mb 60f 69f
2:00pm 17 21 mph 1017.2mb 60f 69f
1:54pm 15 20 mph 1017.2mb 60f 70f
1:48pm 14 17 mph 1017.3mb 60f 70f
1:42pm 16 20 mph 1017.4mb 60f 70f
1:36pm 11 15 mph 1017.5mb 60f 70f
1:30pm 14 17 mph 1017.6mb 60f 70f
1:24pm 13 16 mph 1017.7mb 60f 70f
1:18pm 11 16 mph 1017.7mb 60f 70f
1:12pm 13 17 mph 1017.8mb 60f 70f
1:06pm 16 18 mph 1017.8mb 60f 70f
1:00pm 16 18 mph 1017.9mb 60f 71f
12:54pm 11 14 mph 1018mb 60f 71f
12:48pm 13 15 mph 1017.9mb 60f 70f
12:42pm 11 15 mph 1017.9mb 60f 71f
12:36pm 14 16 mph 1018mb 60f 70f
12:30pm 10 16 mph 1018mb 60f 71f
12:24pm 11 16 mph 1018mb 60f 71f
12:18pm 14 16 mph 1018.1mb 60f 70f
12:12pm 13 16 mph 1018.2mb 60f 69f
12:06pm 14 16 mph 1018.2mb 60f 69f
12:00pm 13 15 mph 1018.2mb 59f 70f
11:54am 11 14 mph 1018.3mb 59f 70f
11:48am 11 14 mph 1018.3mb 59f 70f
11:42am 11 15 mph 1018.2mb 59f 70f
11:36am 11 14 mph 1018.2mb 59f 70f
11:30am 14 15 mph 1018.2mb 59f 70f
11:24am 13 15 mph 1018.3mb 59f 70f
11:18am 11
mph
1018.3mb 59f 70f
11:12am 9 11 mph 1018.3mb 59f 70f
11:06am 9 11 mph 1018.3mb 59f 70f
11:00am 10 11 mph 1018.4mb 59f 69f
10:54am 9
mph
1018.5mb 59f 68f
10:48am 7
mph
1018.7mb 59f 68f
10:42am 6 8 mph 1018.8mb 59f 68f
10:36am 7
mph
1018.7mb 59f 68f
10:30am 8 9 mph 1018.7mb 59f 67f
10:24am 7 9 mph 1018.5mb 59f 67f
10:18am 7 9 mph 1018.5mb 59f 67f
10:12am 8 11 mph 1018.5mb 59f 66f
10:06am 9 13 mph 1018.5mb 59f 66f
10:00am 7 11 mph 1018.5mb 59f 66f
9:54am 9 11 mph 1018.5mb 59f 66f
9:48am 8 10 mph 1018.5mb 59f 66f
9:42am 7 9 mph 1018.5mb 59f 66f
9:36am 7 8 mph 1018.5mb 59f 65f
9:30am 6 7 mph 1018.5mb 60f 65f
9:24am 6 7 mph 1018.5mb 60f 64f
9:18am 7
mph
1018.6mb 60f 64f
9:12am 7
mph
1018.5mb 60f 64f
9:06am 6 7 mph 1018.6mb 60f 64f
9:00am 6 7 mph 1018.7mb 60f 64f
8:54am 5 6 mph 1018.6mb 60f 63f
8:48am 6 7 mph 1018.5mb 61f 63f
8:42am 6 7 mph 1018.4mb 61f 63f
8:36am 7
mph
1018.5mb 61f 62f
8:30am 6 8 mph 1018.5mb 61f 62f
8:24am 6 8 mph 1018.5mb 61f 62f
8:18am 6 8 mph 1018.6mb 61f 62f
8:12am 8 9 mph 1018.6mb 61f 62f
8:06am 7 9 mph 1018.5mb 61f 62f
8:00am 8 9 mph 1018.5mb 61f 62f
7:54am 7 9 mph 1018.5mb 61f 62f
7:48am 7 9 mph 1018.6mb 61f 62f
7:42am 9 10 mph 1018.5mb 61f 62f
7:36am 9 11 mph 1018.6mb 61f 62f
7:30am 7 9 mph 1018.6mb 61f 62f
7:24am 6 9 mph 1018.6mb 61f 62f
7:18am 6 9 mph 1018.7mb 61f 62f
7:12am 6 7 mph 1018.8mb 61f 62f
7:06am 6 7 mph 1018.9mb 61f 62f
7:00am 7 8 mph 1018.8mb 61f 62f
6:54am 7 9 mph 1018.8mb 61f 61f
6:48am 7 9 mph 1018.7mb 61f 61f
6:42am 7 8 mph 1018.7mb 61f 61f
6:36am 7 9 mph 1018.7mb 61f 61f
6:30am 6 8 mph 1018.6mb 62f 61f
6:24am 5 6 mph 1018.7mb 62f 61f
6:18am 6 7 mph 1018.6mb 62f 61f
6:12am 8 9 mph 1018.7mb 62f 61f
6:06am 7 9 mph 1018.6mb 62f 61f
6:00am 8 10 mph 1018.6mb 62f 61f
5:54am 8 10 mph 1018.5mb 62f 61f
5:48am 8 10 mph 1018.6mb 62f 61f
5:42am 8 10 mph 1018.5mb 62f 61f
5:36am 7 8 mph 1018.4mb 62f 61f
5:24am 9 13 mph 1018.5mb 62f 61f
5:18am 8 13 mph 1018.4mb 62f 61f
5:12am 9 10 mph 1018.4mb 62f 61f
5:06am 7 10 mph 1018.3mb 62f 61f
5:00am 8 10 mph 1018.4mb 62f 61f
4:54am 8 10 mph 1018.3mb 62f 61f
4:48am 7 10 mph 1018.4mb 62f 61f
4:42am 9 11 mph 1018.4mb 62f 61f
4:36am 8 10 mph 1018.4mb 62f 61f
4:30am 7 11 mph 1018.5mb 62f 61f
4:24am 10 13 mph 1018.4mb 62f 61f
4:18am 7 9 mph 1018.4mb 62f 62f
4:12am 7 10 mph 1018.2mb 62f 62f
4:06am 6 8 mph 1018.2mb 61f 62f
4:00am 6 9 mph 1018.2mb 61f 62f
3:54am 6 8 mph 1018.2mb 61f 62f
3:48am 5 6 mph 1018.2mb 61f 62f
3:42am 5 6 mph 1018.1mb 61f 62f
3:36am 5 6 mph 1018.1mb 61f 62f
3:30am 5 7 mph 1018.2mb 61f 62f
3:24am 6
mph
1018.2mb 61f 62f
3:18am 5 6 mph 1018.1mb 61f 62f
3:12am 5 7 mph 1018.1mb 61f 62f
3:06am 6 7 mph 1018.2mb 61f 62f
3:00am 6 8 mph 1018.2mb 61f 62f
2:54am 6 7 mph 1018.3mb 61f 62f
2:48am 6 7 mph 1018.3mb 60f 62f
2:42am 6 7 mph 1018.2mb 60f 62f
2:36am 6 8 mph 1018.2mb 60f 62f
2:30am 7 8 mph 1018.2mb 60f 62f
2:24am 6 8 mph 1018.2mb 60f 62f
2:18am 6 7 mph 1018.1mb 60f 62f
2:12am 7 9 mph 1018mb 60f 63f
2:06am 6 8 mph 1018mb 60f 63f
2:00am  -  mph 1018mb 60f 63f
1:54am  -  mph 1017.9mb 60f 63f
1:48am  -  mph 1017.9mb 60f 63f
1:42am  -  mph 1017.8mb 60f 63f
1:36am  -  mph 1017.9mb 60f 63f
1:30am 7 10 mph 1017.8mb 60f 63f
1:24am 7 9 mph 1017.7mb 60f 63f
1:18am 8 10 mph 1017.7mb 60f 63f
1:12am 8 10 mph 1017.7mb 60f 63f
1:06am 8 9 mph 1017.7mb 59f 64f
1:00am 8 9 mph 1017.7mb 59f 64f
12:54am 8 10 mph 1017.7mb 59f 64f
12:48am 7 10 mph 1017.8mb 59f 64f
12:42am 8 9 mph 1017.9mb 59f 64f
12:36am 7 8 mph 1017.9mb 59f 64f
12:30am 7 8 mph 1018mb 59f 64f
12:24am 6 9 mph 1018mb 59f 64f
12:18am 8 10 mph 1017.9mb 59f 64f
12:12am 8 9 mph 1017.9mb 59f 64f
12:06am 7 8 mph 1018.1mb 59f 64f
12:00am 7 10 mph 1018.1mb 59f 64f
Thu 05/26 11:54pm 9 11 mph 1018mb 59f 65f
11:48pm 7 9 mph 1017.9mb 59f 65f
11:42pm  -  mph 1017.9mb 59f 65f
11:36pm  -  mph 1017.8mb 59f 65f
11:30pm 8 9 mph 1017.8mb 59f 65f
11:24pm 7 10 mph 1017.8mb 59f 65f
11:18pm  -  mph 1018mb 59f -
11:12pm  -  mph 1018.1mb 59f -
11:06pm  -  mph 1018.1mb 59f -
11:00pm  -  mph 1018.1mb 58f -
10:54pm  -  mph 1018mb 59f -
10:48pm 9 11 mph 1017.9mb - -
10:42pm 8 11 mph 1017.8mb - -
10:36pm 9 11 mph 1017.8mb - -
10:30pm 10 13 mph - - -
10:24pm 10 14 mph - - -
10:18pm  -  mph 1017.8mb 58f 66f
10:12pm  -  mph 1017.8mb 58f 66f
10:06pm  -  mph 1017.8mb 58f 66f
10:00pm  -  mph 1017.8mb - -
9:54pm  -  mph 1017.7mb - -
9:48pm  -  mph 1017.6mb - -
9:42pm  -  mph 1017.5mb - -
9:36pm  -  mph 1017.5mb - -
9:30pm 7 10 mph 1017.4mb - -
9:24pm 8 9 mph 1017.3mb - -
9:18pm 7 8 mph 1017.2mb - -
9:12pm  -  mph 1017.2mb 59f -
9:06pm  -  mph 1017.2mb 59f -
9:00pm  -  mph 1017.1mb - -
8:54pm  -  mph 1017mb - -
8:48pm  -  mph 1016.9mb - -
8:42pm  -  mph 1016.9mb - -
8:36pm  -  mph 1016.8mb - -
8:30pm 7 11 mph 1016.6mb 59f -
8:24pm 10 11 mph 1016.5mb 59f -
8:18pm  -  mph - 59f 70f
8:12pm  -  mph - 59f 70f
8:06pm  -  mph - 59f 70f
8:00pm  -  mph 1016.6mb - -
7:54pm  -  mph 1016.5mb - -
7:48pm  -  mph 1016.5mb - -
7:42pm  -  mph - 59f -
7:36pm  -  mph - 59f -
7:30pm 11 14 mph 1016.5mb 59f -
7:24pm 13 16 mph 1016.5mb 59f -
7:18pm  -  mph - 59f 72f
7:12pm  -  mph - 59f 72f
7:06pm  -  mph - 59f 73f
7:00pm 11 14 mph 1016.5mb - -
6:54pm 10 14 mph 1016.4mb - -
6:48pm 10 14 mph 1016.3mb - -
6:42pm 10 14 mph 1016.3mb - -
6:36pm 11 14 mph 1016.3mb - -
6:30pm 10 14 mph 1016.3mb 59f -
6:24pm 10 11 mph 1016.3mb 59f -
6:18pm 9 11 mph 1016.2mb 59f -
6:12pm  -  mph 1016.2mb 59f 76f
6:06pm  -  mph 1016.1mb 60f 75f
6:00pm 13 14 mph 1016.1mb 60f -
5:54pm 10 11 mph 1016.2mb 60f -
5:48pm  -  mph - 60f -
5:42pm  -  mph - 60f -
5:36pm  -  mph - 60f -
5:30pm 9 11 mph 1016.1mb 60f 76f
5:18pm 8 13 mph 1016.2mb 60f 75f
5:12pm 8 10 mph 1016.3mb 60f 75f
5:06pm 9 13 mph 1016.2mb 60f 75f
5:00pm 10 11 mph 1016.2mb 60f 75f
4:54pm 11 14 mph 1016.2mb 60f 75f
4:48pm 9 15 mph 1016.2mb 60f 75f
4:42pm 11 18 mph 1016.2mb 60f 75f
4:36pm 16 20 mph 1016.1mb 60f 76f
4:30pm 15 18 mph 1016.2mb 60f 77f
4:24pm 14 17 mph 1016.2mb 60f 78f
4:18pm 14 18 mph 1016.2mb 60f 78f
4:12pm 14 16 mph 1016.2mb 60f 78f
4:06pm 14 16 mph 1016.2mb 60f 78f
4:00pm 14 17 mph 1016.1mb 59f 77f
3:54pm 14 17 mph 1016.2mb 59f 78f
3:48pm 14 16 mph 1016.3mb 59f 77f
3:42pm 13 16 mph 1016.3mb 59f 77f
3:36pm 13 17 mph 1016.3mb 59f 77f
3:30pm 14 18 mph 1016.3mb 59f 77f
3:24pm 15 18 mph 1016.3mb 59f 77f
3:18pm 14 17 mph 1016.2mb 59f 77f
3:12pm 15 17 mph 1016.3mb 58f 77f
3:06pm 14 16 mph 1016.4mb 58f 77f
3:00pm 14 16 mph 1016.4mb 58f 76f
2:54pm 13 21 mph 1016.4mb 58f 76f
2:48pm 17 21 mph 1016.4mb 58f 75f
2:42pm 17 21 mph 1016.4mb 58f 75f
2:36pm 17 20 mph 1016.5mb 58f 76f
2:30pm 16 20 mph 1016.5mb 58f 76f
2:24pm 17 22 mph 1016.6mb 58f 77f
2:18pm 20 22 mph 1016.7mb 58f 77f
2:12pm 17 22 mph 1016.7mb 58f 76f
2:06pm 15 18 mph 1016.7mb 58f 77f
2:00pm 15 16 mph 1016.8mb 57f 78f
1:54pm 14 16 mph 1016.9mb 57f 78f
1:48pm 15 17 mph 1016.9mb 57f 77f
1:42pm  -  mph 1016.9mb 57f 77f
1:36pm  -  mph 1016.9mb 57f 76f
1:30pm 15 18 mph 1017mb 57f 78f
1:24pm 15 18 mph 1016.9mb 57f 79f
1:18pm 16 18 mph 1016.9mb 57f 80f
1:12pm 16 18 mph 1016.9mb 57f 80f
1:06pm 15 17 mph 1017mb 57f 80f
1:00pm 15 16 mph 1016.9mb 57f 80f
12:54pm 14 16 mph 1017mb 57f 80f
12:48pm 14 15 mph 1017.1mb 57f 80f
12:42pm 13 15 mph 1017.2mb 57f 80f
12:36pm 10 14 mph 1017.2mb 56f 80f
12:30pm 11 14 mph 1017.2mb 56f 80f
12:24pm 11 15 mph 1017.3mb 56f 79f
12:18pm 14 15 mph 1017.4mb 56f 79f
12:12pm 13 15 mph 1017.5mb 56f 80f
12:06pm 13 15 mph 1017.5mb 56f 79f
12:00pm 13 14 mph 1017.6mb 56f 80f
11:54am 9 11 mph 1017.5mb 56f 79f
11:48am 9 11 mph 1017.5mb 56f 79f
11:42am 13 14 mph 1017.6mb 56f 80f
11:36am 9 11 mph 1017.6mb 56f 80f
11:30am 11 13 mph 1017.7mb 56f 78f
11:24am 9 11 mph 1017.7mb 56f 78f
11:18am 7 10 mph 1017.7mb 56f 77f
11:12am 8 10 mph 1017.8mb 56f 78f
11:06am 8 9 mph 1017.8mb 56f 78f
11:00am 8
mph
1017.8mb 56f 75f
10:54am 8 9 mph 1017.9mb 56f 73f
10:48am 7
mph
1017.9mb 57f 76f
10:42am 7 8 mph 1017.9mb 57f 78f
10:36am 9
mph
1017.8mb 57f 78f
10:30am 7 8 mph 1017.8mb 56f 74f
10:24am 6
mph
1017.9mb 56f 72f
10:18am 5
mph
1017.8mb 56f 72f
10:12am 5
mph
1017.8mb 56f 72f
10:06am 2 3 mph 1017.9mb 56f 76f
10:00am 1 2 mph 1017.8mb 56f 78f
9:54am  -  2 mph 1017.9mb 56f 75f
9:48am 1 3 mph 1017.9mb 57f 74f
9:42am 2 3 mph 1018mb 56f 73f
9:36am 1 3 mph 1018.1mb 56f 73f
9:30am 2 3 mph 1018.1mb 56f 74f
9:24am 2 5 mph 1018.2mb 56f 72f
9:18am 2 3 mph 1018.3mb 56f 73f
9:12am 2 3 mph 1018.3mb 56f 72f
9:06am 2 3 mph 1018.3mb 57f 71f
9:00am 2 3 mph 1018.4mb 57f 71f
8:54am 2 3 mph 1018.4mb 57f 71f
8:48am 2 3 mph 1018.4mb 57f 72f
8:42am 1 2 mph 1018.4mb 57f 72f
8:36am 1 2 mph 1018.4mb 57f 71f
8:30am 1 2 mph 1018.4mb 57f 70f
8:24am 2 5 mph 1018.4mb 58f 68f
8:18am 2 3 mph 1018.5mb 58f 68f
8:12am  -  2 mph 1018.5mb 58f 68f
8:06am 1 2 mph 1018.4mb 58f 68f
8:00am 1 3 mph 1018.4mb 58f 68f
7:54am 1 3 mph 1018.4mb 58f 68f
7:48am 2 3 mph 1018.3mb 58f 67f
7:42am 2 3 mph 1018.3mb 58f 67f
7:36am 2
mph
1018.2mb 58f 67f
7:30am 2 6 mph 1018.2mb 58f 67f
7:24am 3 5 mph 1018.1mb 58f 66f
7:18am 3
mph
1018.1mb 58f 66f
7:12am 1 6 mph 1018mb 58f 66f
7:06am 3 6 mph 1018.1mb 58f 67f
7:00am 2 3 mph 1018mb 58f 69f
6:54am  -  2 mph 1017.9mb 58f 69f
6:48am  -  mph 1017.9mb 58f 69f
6:42am  -  1 mph 1017.8mb 58f 70f
6:36am  -  2 mph 1017.9mb 58f 69f
6:30am 2 3 mph 1017.9mb 58f 67f
6:24am 3 7 mph 1017.9mb 58f 66f
6:18am 5 6 mph 1017.9mb 58f 66f
6:12am 5 6 mph 1017.8mb 58f 66f
6:06am 2 3 mph 1017.8mb 58f 66f
6:00am 3 5 mph 1017.7mb 58f 65f
5:54am 2 3 mph 1017.7mb 58f 64f
5:48am 1 2 mph 1017.7mb 58f 64f
5:42am 1 3 mph 1017.6mb 59f 64f
5:36am  -  2 mph 1017.6mb 59f 64f
5:30am 1 2 mph 1017.5mb 59f 64f
5:24am  -  3 mph 1017.4mb 59f 65f
5:18am 2
mph
1017.3mb 59f 65f
5:12am  -  1 mph 1017.3mb 59f 65f
5:06am 1 5 mph 1017.2mb 59f 66f
5:00am 1 3 mph 1017.2mb 59f 66f
4:54am 3 5 mph 1017.1mb 59f 66f
4:48am 2 3 mph 1017.1mb 59f 65f
4:42am 2 5 mph 1016.9mb 59f 65f
4:36am 3 5 mph 1016.8mb 59f 65f
4:30am 2 3 mph 1016.8mb 59f 65f
4:24am 1 2 mph 1016.7mb 59f 64f
4:18am  -  2 mph 1016.6mb 59f 65f
4:12am  -  2 mph 1016.6mb 59f 65f
4:06am 1
mph
1016.7mb 59f 64f
4:00am  -  1 mph 1016.6mb 59f 64f
3:54am 1
mph
1016.5mb 59f 65f
3:48am 1 2 mph 1016.5mb 59f 65f
3:42am 2
mph
1016.4mb 59f 65f
3:36am 1 2 mph 1016.3mb 59f 66f
3:24am 2 3 mph 1016.3mb 58f 65f
3:18am 2 3 mph 1016.3mb 58f 65f
3:12am 2
mph
1016.3mb 58f 65f
3:06am 1 3 mph 1016.2mb 58f 66f
3:00am 2 5 mph 1016.1mb 58f 69f
2:54am 3 6 mph 1016.1mb 58f 69f
2:48am 5 6 mph 1016mb 58f 69f
2:42am 5 6 mph 1015.9mb 58f 69f
2:36am 3 5 mph 1015.9mb 58f 68f
2:30am 2 3 mph 1015.9mb 58f 67f
2:24am 3 5 mph 1015.8mb 58f 67f
2:18am 5 7 mph 1015.8mb 58f 67f
2:12am 7
mph
1015.7mb 58f 67f
2:06am 3
mph
1015.7mb 57f 68f
2:00am 2 3 mph 1015.7mb 57f 70f
1:54am 2 6 mph 1015.6mb 57f 71f
1:48am 5 6 mph 1015.6mb 57f 71f
1:42am 5 6 mph 1015.6mb 57f 70f
1:36am 5 6 mph 1015.7mb 57f 70f
1:30am 5
mph
1015.6mb 57f 70f
1:24am 3 5 mph 1015.5mb 57f 70f
1:18am 3 5 mph 1015.4mb 57f 71f
1:12am 2 5 mph 1015.3mb 57f 72f
1:06am 3 6 mph 1015.3mb 57f 72f
1:00am 3 7 mph 1015.2mb 56f 72f
12:54am 6 8 mph 1015.3mb 56f 73f
12:48am 6 8 mph 1015.3mb 56f 73f
12:42am 5 7 mph 1015.3mb 56f 74f
12:36am 5 9 mph 1015.3mb 56f 74f
12:30am 3 6 mph 1015.3mb 56f 75f
12:24am 5 8 mph 1015.4mb 56f 75f
12:18am 6 9 mph 1015.3mb 56f 75f
12:12am 6 10 mph 1015.2mb 56f 75f
12:06am 6 8 mph 1015.3mb 56f 75f
12:00am 7 8 mph 1015.4mb 56f 75f
Wed 05/25 11:54pm 6 11 mph 1015.4mb 56f 76f
11:48pm  -  mph 1015.4mb 56f 76f
11:42pm  -  mph 1015.3mb 56f 77f
11:36pm  -  mph 1015.4mb 56f 77f
11:30pm 8 10 mph 1015.3mb 56f 77f
11:24pm 8 10 mph 1015.4mb 56f 77f
11:18pm 8 10 mph 1015.4mb 56f 77f
11:12pm  -  mph 1015.4mb 56f 77f
11:06pm  -  mph 1015.5mb 56f 77f
11:00pm  -  mph - 56f 76f
10:54pm  -  mph - 56f 77f
10:48pm  -  mph - 56f 77f
10:42pm  -  mph - 56f 76f
10:36pm  -  mph - 56f 77f
10:30pm 6 8 mph 1015.4mb 56f -
10:24pm 6 8 mph 1015.4mb 56f -
10:18pm  -  mph 1015.4mb 56f 77f
10:12pm  -  mph 1015.3mb 56f 77f
10:06pm  -  mph 1015.4mb 56f 78f
10:00pm 7 9 mph 1015.3mb 56f -
9:54pm 6 8 mph 1015.2mb 56f -
9:48pm 7 10 mph 1015.2mb 56f -
9:42pm  -  mph 1015.2mb 56f -
9:36pm  -  mph 1015.2mb 56f -
9:30pm 6 7 mph 1015.1mb - -
9:24pm 6 8 mph 1015.1mb - -
9:18pm 7 11 mph 1015mb 56f -
9:12pm 6 8 mph 1015mb 56f -
9:06pm 5 10 mph 1014.9mb 56f -
9:00pm  -  mph 1014.8mb 56f -
8:54pm  -  mph 1014.8mb 56f -
8:48pm  -  mph 1014.8mb 56f -
8:42pm  -  mph 1014.7mb 56f -
8:36pm  -  mph 1014.7mb 56f -
8:30pm 6 13 mph 1014.7mb 56f -
8:24pm 6 8 mph 1014.7mb 56f -
8:18pm  -  mph 1014.6mb 56f 83f
8:12pm  -  mph 1014.5mb 56f 83f
8:06pm  -  mph 1014.4mb 56f 84f
8:00pm 6 9 mph 1014.3mb 56f -
7:54pm 7 8 mph 1014.2mb 56f -
7:48pm 7 9 mph - 56f -
7:42pm 5 7 mph - 56f -
7:36pm 3 10 mph - 56f -
7:30pm 6 10 mph 1014mb 56f -
7:24pm 6 10 mph 1014mb 56f -
7:18pm  -  mph 1014mb 56f 86f
7:12pm  -  mph 1013.9mb 56f 87f
7:06pm  -  mph 1014mb 56f 87f
7:00pm  -  mph 1013.9mb 56f -
6:54pm  -  mph 1013.9mb 56f -
6:48pm 9 11 mph 1013.9mb - -
6:42pm 6 10 mph 1013.8mb - -
6:36pm 7 10 mph 1013.7mb - -
6:30pm 8 13 mph 1013.7mb - -
6:24pm 11 15 mph 1013.7mb - -
6:18pm 11 16 mph 1013.6mb - -
6:12pm 8 14 mph 1013.5mb 56f 89f
6:06pm 11 17 mph 1013.5mb 56f 88f
6:00pm 8 16 mph 1013.5mb 56f -
5:54pm 8 17 mph 1013.4mb 56f -
5:48pm  -  mph 1013.4mb - -
5:42pm  -  mph 1013.5mb - -
5:36pm  -  mph 1013.6mb - -
5:30pm 10 18 mph 1013.6mb 57f 89f
5:24pm 13 18 mph 1013.4mb 57f 89f
5:18pm 14 21 mph 1013.4mb 57f 89f
5:12pm 9 15 mph 1013.4mb 57f 89f
5:06pm 9 15 mph 1013.3mb 57f 89f
5:00pm 10 14 mph 1013.4mb 57f 89f
4:54pm 16 20 mph 1013.5mb 57f 89f
4:48pm 13 21 mph 1013.4mb 57f 89f
4:42pm 14 21 mph 1013.5mb 57f 89f
4:36pm 13 22 mph 1013.5mb 57f 89f
4:30pm 13 24 mph 1013.5mb 57f 89f
4:24pm 11 22 mph 1013.4mb 57f 89f
4:18pm 15 24 mph 1013.4mb 57f 88f
4:12pm 15 24 mph 1013.4mb 57f 88f
4:06pm 11 16 mph 1013.4mb 57f 89f
4:00pm 9 16 mph 1013.3mb 57f 88f
3:54pm 5 10 mph 1013.4mb 57f 81f
3:48pm 9 11 mph 1013.4mb 57f 77f
3:42pm 3 13 mph 1013.5mb 57f 78f
3:36pm 9 15 mph 1013.4mb 56f 77f
3:30pm 13 15 mph 1013.5mb 56f 76f
3:24pm 13 18 mph 1013.4mb 56f 76f
3:18pm 14 15 mph 1013.5mb 56f 75f
3:12pm 13 15 mph 1013.5mb 56f 76f
3:06pm 8 15 mph 1013.6mb 56f 76f
3:00pm 15 21 mph 1013.6mb 56f 74f
2:54pm 16 18 mph 1013.8mb 56f 74f
2:48pm 13 15 mph 1013.8mb 56f 74f
2:42pm 11 16 mph 1013.9mb 56f 73f
2:36pm 15 18 mph 1013.9mb 56f 74f
2:24pm 14 20 mph 1014mb 56f 73f
2:18pm 16 20 mph 1014mb 56f 73f
2:12pm 15 18 mph 1014mb 56f 72f
2:06pm 15 17 mph 1014mb 56f 72f
2:00pm 15 20 mph 1014mb 56f 74f
1:54pm 16 20 mph 1013.9mb 56f 72f
1:48pm 16 20 mph 1013.9mb 56f 72f
1:42pm 15 17 mph 1013.9mb 56f 72f
1:36pm 14 16 mph 1014mb 55f 72f
1:30pm 13 15 mph 1014mb 55f 72f
1:24pm 14 17 mph 1014.1mb 55f 71f
1:18pm 13 16 mph 1014.2mb 55f 71f
1:12pm 14 15 mph 1014.3mb 55f 71f
1:06pm 11 14 mph 1014.4mb 55f 71f
1:00pm 11 14 mph 1014.4mb 55f 72f
12:54pm 10 13 mph 1014.5mb 55f 71f
12:48pm 11 13 mph 1014.6mb 55f 71f
12:42pm 10 13 mph 1014.6mb 55f 71f
12:36pm 8 11 mph 1014.6mb 55f 71f
12:30pm 9 11 mph 1014.7mb 55f 71f
12:24pm 9 13 mph 1014.7mb 55f 71f
12:18pm 11 13 mph 1014.8mb 55f 69f
12:12pm 10 13 mph 1014.9mb 55f 69f
12:06pm 9 11 mph 1015mb 55f 70f
12:00pm 10 13 mph 1014.9mb 55f 69f
11:54am 10 11 mph 1015mb 55f 68f
11:48am 9 11 mph 1015.1mb 55f 68f
11:42am 11
mph
1015.1mb 55f 67f
11:36am 10 11 mph 1015.2mb 55f 67f
11:30am 8 11 mph 1015.3mb 55f 67f
11:24am 10 11 mph 1015.3mb 55f 67f
11:18am 10
mph
1015.2mb 55f 67f
11:06am 8 9 mph 1015.2mb 55f 67f
11:00am 9 10 mph 1015.2mb 55f 66f
10:54am 8 10 mph 1015.2mb 55f 66f
10:48am 8 10 mph 1015.2mb 55f 66f
10:42am 9 10 mph 1015.2mb 55f 65f
10:36am 9 10 mph 1015.3mb 55f 65f
10:30am 9 10 mph 1015.3mb 55f 65f
10:24am 8 9 mph 1015.4mb 55f 65f
10:18am 8 10 mph 1015.4mb 55f 65f
10:12am 8 11 mph 1015.4mb 55f 64f
10:00am 8 9 mph 1015.4mb 55f 64f
9:48am 8 10 mph 1015.4mb 55f 63f
9:42am 8 9 mph 1015.3mb 55f 62f
9:36am 8 9 mph 1015.3mb 55f 62f
9:30am 7 9 mph 1015.2mb 55f 62f
9:18am 8 10 mph 1015.2mb 55f 61f
9:12am 9 10 mph 1015.1mb 55f 61f
9:06am 9 10 mph 1015.2mb 55f 61f
9:00am 8 10 mph 1015.2mb 55f 60f
8:54am 9 10 mph 1015.2mb 55f 60f
8:48am 8
mph
1015.3mb 55f 60f
8:42am 7 8 mph 1015.4mb 55f 59f
8:36am 7 8 mph 1015.4mb 55f 59f
8:30am 7 8 mph 1015.4mb 55f 59f
8:24am 6 8 mph 1015.5mb 55f 59f
8:18am 7 9 mph 1015.6mb 55f 58f
8:12am 7 8 mph 1015.6mb 55f 58f
8:06am 6 7 mph 1015.7mb 55f 58f
8:00am 5 7 mph 1015.7mb 55f 58f
7:54am 6 7 mph 1015.6mb 55f 58f
7:48am 6 7 mph 1015.6mb 55f 58f
7:42am 6 8 mph 1015.7mb 55f 58f
7:36am 6 7 mph 1015.6mb 55f 58f
7:30am 6 8 mph 1015.6mb 55f 58f
7:24am 7 8 mph 1015.5mb 55f 57f
7:18am 6 8 mph 1015.4mb 55f 58f
7:12am 6 7 mph 1015.4mb 55f 58f
7:06am 5 7 mph 1015.5mb 55f 58f
7:00am 3 6 mph 1015.5mb 55f 58f
6:54am 2 5 mph 1015.6mb 55f 58f
6:48am 3 6 mph 1015.6mb 55f 57f
6:42am 3 5 mph 1015.5mb 55f 57f
6:36am 2 5 mph 1015.6mb 55f 57f
6:30am 5 6 mph 1015.3mb 55f 57f
6:24am 5
mph
1015.3mb 55f 56f
6:18am 3 5 mph 1015.2mb 55f 56f
6:12am 3 5 mph 1015.1mb 55f 56f
6:06am 5
mph
1015mb 55f 56f
5:54am 3
mph
1015.1mb 55f 57f
5:48am 2 3 mph 1015.1mb 55f 57f
5:42am 2
mph
1015mb 56f 57f
5:36am 1 2 mph 1015.1mb 56f 57f
5:30am 1 3 mph 1015.2mb 56f 57f
5:24am 2 3 mph 1015.2mb 56f 57f
5:18am  -  2 mph 1015.1mb 56f 57f
5:12am 2
mph
1015.1mb 56f 57f
5:06am 1 3 mph 1015.1mb 56f 57f
5:00am 3 5 mph 1015.2mb 56f 57f
4:54am 3 6 mph 1015.4mb 56f 57f
4:48am 5
mph
1015.3mb 56f 57f
4:42am 1
mph
1015.2mb 56f 57f
4:36am  -  1 mph 1015.1mb 56f 57f
4:30am 2 3 mph 1015.2mb 56f 57f
4:24am 2 6 mph 1015.2mb 56f 57f
4:18am 3 6 mph 1015.2mb 56f 57f
4:12am 5 6 mph 1015.3mb 56f 57f
4:06am  -  2 mph 1015.2mb 56f 57f
4:00am 3 5 mph 1015mb 56f 57f
3:54am  -  1 mph 1014.9mb 56f 57f
3:48am  -  3 mph 1015mb 56f 57f
3:42am 2 6 mph 1015mb 56f 57f
3:36am 2 5 mph 1015mb 56f 57f
3:30am 2 3 mph 1014.8mb 56f 56f
3:24am 2 3 mph 1014.8mb 56f 56f
3:18am 2 3 mph 1014.8mb 56f 56f
3:12am 5 7 mph 1014.8mb 56f 56f
3:06am 6
mph
1014.5mb 56f 56f
3:00am 3 5 mph 1014.6mb 56f 56f
2:54am  -  3 mph 1014.6mb 56f 56f
2:48am  -  2 mph 1014.7mb 56f 57f
2:42am 2 3 mph 1014.6mb 55f 56f
2:36am  -  2 mph 1014.5mb 55f 56f
2:30am 2 5 mph 1014.4mb 55f 56f
2:24am 1 3 mph 1014.6mb 55f 56f
2:18am  -  3 mph 1014.7mb 55f 56f
2:12am 2 5 mph 1014.5mb 55f 56f
2:06am 2 5 mph 1014.5mb 55f 56f
2:00am  -  2 mph 1014.4mb 55f 56f
1:54am  -  5 mph 1014.2mb 55f 56f
1:48am 3 6 mph 1013.9mb 55f 56f
1:42am 5 6 mph 1014.1mb 55f 56f
1:36am 5 6 mph 1014.1mb 55f 56f
1:30am 5 6 mph 1014.1mb 54f 56f
1:24am 6
mph
1014.1mb 54f 56f
1:18am 6
mph
1014.2mb 54f 56f
1:12am 2 6 mph 1014.2mb 54f 56f
1:06am 6
mph
1014.3mb 54f 56f
1:00am 3 5 mph 1014.3mb 54f 56f
12:54am 5
mph
1014.3mb 54f 56f
12:48am 1 3 mph 1014.4mb 54f 56f
12:42am 2 5 mph 1014.4mb 54f 56f
12:36am 2 5 mph 1014.4mb 54f 56f
12:30am 3 5 mph 1014.3mb 54f 56f
12:24am 3 6 mph 1014.3mb 54f 56f
12:18am 6
mph
1014.3mb 54f 56f
12:12am 5 7 mph 1014.4mb 54f 56f
12:06am 6 7 mph 1014.3mb 54f 56f
12:00am 7 9 mph 1014.3mb 54f 56f
Tue 05/24 11:54pm 7 9 mph 1014.2mb 54f 56f
11:48pm  -  mph 1014.2mb 54f 56f
11:42pm  -  mph 1014.3mb 54f 56f
11:36pm  -  mph 1014.2mb 54f 56f
11:30pm 8 11 mph 1014.1mb 54f 56f
11:24pm 8 11 mph 1014.1mb 54f 56f
11:18pm  -  mph 1014.1mb 55f 56f
11:12pm  -  mph 1014mb 55f 56f
11:06pm  -  mph 1014.1mb 55f 56f
11:00pm 6 8 mph 1014.1mb 55f 56f
10:54pm 6 8 mph 1014.2mb 55f 56f
10:48pm 7 9 mph - - -
10:42pm 9 10 mph - - -
10:36pm 8 13 mph - - -
10:30pm 9 11 mph - 55f -
10:24pm 6 13 mph - 55f -
10:18pm 8 11 mph - 55f -
10:12pm  -  mph 1014mb 55f 56f
10:06pm  -  mph 1014mb 55f 56f
9:54pm  -  mph 1013.8mb 55f 56f
9:48pm  -  mph 1013.7mb - -
9:42pm  -  mph 1013.7mb - -
9:36pm  -  mph 1013.6mb - -
9:30pm 9 11 mph 1013.6mb 55f -
9:24pm 6 8 mph 1013.7mb 55f -
9:18pm 6 8 mph 1013.7mb 55f -
9:12pm  -  mph 1013.6mb 55f 56f
9:06pm  -  mph 1013.6mb 55f 56f
8:54pm  -  mph 1013.5mb 55f -
8:48pm  -  mph 1013.4mb - -
8:42pm  -  mph 1013.4mb - -
8:36pm  -  mph 1013.2mb - -
8:30pm 6 9 mph 1013.2mb - 56f
8:24pm 7 9 mph 1013.1mb - 56f
8:18pm 6 7 mph 1013mb - 56f
8:12pm  -  mph 1013mb 55f 56f
8:06pm  -  mph 1012.9mb 55f 56f
8:00pm  -  mph 1012.9mb - 56f
7:54pm  -  mph 1012.9mb - 56f
7:48pm 8 10 mph - 55f -
7:42pm 8 10 mph - 55f -
7:36pm 8 10 mph - 55f -
7:30pm  -  mph 1012.8mb 55f -
7:18pm  -  mph 1012.9mb 55f -
7:12pm  -  mph 1012.9mb 55f 56f
7:06pm  -  mph 1012.8mb 55f 56f
7:00pm  -  mph 1012.8mb 55f 56f
6:54pm  -  mph 1012.7mb 55f 56f
6:48pm  -  mph 1012.6mb 55f 56f
6:42pm  -  mph 1012.5mb 55f 56f
6:36pm  -  mph 1012.5mb 55f 56f
6:30pm  -  mph 1012.5mb 55f 57f
6:24pm 9 11 mph 1012.4mb 56f -
6:18pm 9 11 mph 1012.3mb 56f -
6:12pm 11 13 mph 1012.2mb 56f -
6:06pm 10 14 mph 1012.2mb 56f -
6:00pm  -  mph - - 57f
5:54pm  -  mph - - 57f
5:48pm  -  mph 1012mb 56f 57f
5:42pm  -  mph 1012mb 56f 58f
5:36pm  -  mph 1012mb 56f 58f
5:30pm 13 16 mph 1012mb 56f 58f
5:24pm 9 15 mph 1012mb 56f 58f
5:18pm 11 14 mph 1012mb 56f 58f
5:12pm 9 13 mph 1011.9mb 56f 58f
5:06pm 9 14 mph 1011.9mb 56f 58f
4:54pm 10 14 mph 1012mb 57f 58f
4:48pm 9 14 mph 1011.9mb 57f 58f
4:42pm 10 15 mph 1011.9mb 57f 58f
4:36pm 10 16 mph 1011.8mb 57f 58f
4:30pm 11 18 mph 1011.7mb 57f 58f
4:24pm 14 17 mph 1011.6mb 57f 58f
4:18pm 13 17 mph 1011.5mb 57f 58f
4:12pm 14 16 mph 1011.5mb 57f 57f
4:06pm 13 16 mph 1011.5mb 57f 58f
4:00pm 15 18 mph 1011.5mb 57f 58f
3:54pm 11 15 mph 1011.5mb 57f 58f
3:48pm 11 14 mph 1011.5mb 57f 58f
3:42pm 10 14 mph 1011.6mb 57f 58f
3:36pm 10 14 mph 1011.7mb 57f 58f
3:30pm 11 15 mph 1011.6mb 57f 58f
3:24pm 11 14 mph 1011.6mb 57f 58f
3:18pm 9 14 mph 1011.6mb 57f 58f
3:12pm 13 15 mph 1011.6mb 57f 58f
3:06pm 13 15 mph 1011.6mb 57f 58f
3:00pm 9 14 mph 1011.6mb 57f 58f
2:54pm 9 13 mph 1011.6mb 57f 58f
2:48pm 11 14 mph 1011.6mb 57f 58f
2:42pm 10 14 mph 1011.6mb 57f 58f
2:36pm 9 15 mph 1011.6mb 57f 58f
2:30pm 11 14 mph 1011.5mb 57f 58f
2:24pm 13 15 mph 1011.5mb 57f 58f
2:18pm 10 16 mph 1011.5mb 56f 58f
2:12pm 11 15 mph 1011.4mb 56f 58f
2:06pm 14 17 mph 1011.3mb 56f 58f
2:00pm 11 14 mph 1011.2mb 56f 57f
1:54pm 14 16 mph 1011.2mb 56f 57f
1:48pm 13 16 mph 1011.3mb 56f 57f
1:42pm 11 15 mph 1011.3mb 56f 57f
1:36pm 13 18 mph 1011.3mb 56f 57f
1:30pm 14 18 mph 1011.3mb 56f 57f
1:24pm 14 18 mph 1011.3mb 56f 57f
1:18pm 14 17 mph 1011.3mb 55f 57f
1:12pm 14 17 mph 1011.5mb 55f 57f
1:06pm 14 17 mph 1011.5mb 55f 57f
1:00pm 14 17 mph 1011.5mb 55f 57f
12:54pm 13 17 mph 1011.6mb 55f 57f
12:48pm 13 16 mph 1011.5mb 55f 57f
12:42pm 14 17 mph 1011.6mb 55f 57f
12:36pm 14 16 mph 1011.6mb 55f 57f
12:30pm 14 16 mph 1011.6mb 55f 57f
12:24pm 14 16 mph 1011.7mb 55f 57f
12:18pm 13 17 mph 1011.7mb 55f 57f
12:12pm 14 18 mph 1011.6mb 55f 57f
12:06pm 13 16 mph 1011.6mb 55f 57f
12:00pm 14 18 mph 1011.5mb 55f 57f
11:54am 11 17 mph 1011.4mb 55f 57f
11:48am 14 18 mph 1011.4mb 55f 57f
11:42am 14 17 mph 1011.4mb 55f 57f
11:36am 15 18 mph 1011.3mb 55f 57f
11:30am 13 20 mph 1011.3mb 55f 57f
11:24am 17 20 mph 1011.2mb 55f 57f
11:18am 14 20 mph 1011.2mb 55f 57f
11:12am 14 17 mph 1011.3mb 55f 57f
11:06am 15 21 mph 1011.2mb 55f 57f
11:00am 15 18 mph 1011.2mb 55f 57f
10:54am 11 18 mph 1011.2mb 55f 57f
10:48am 14 18 mph 1011.2mb 55f 57f
10:42am 13 22 mph 1011.1mb 55f 57f
10:36am 13 17 mph 1011.1mb 55f 57f
10:30am 11 16 mph 1011.2mb 55f 57f
10:24am 11 15 mph 1011.1mb 55f 57f
10:18am 10 18 mph 1011.1mb 55f 56f
10:12am 14 21 mph 1011mb 55f 56f
10:06am 14 18 mph 1010.8mb 55f 56f
10:00am 9 15 mph 1010.9mb 56f 56f
9:54am 11 21 mph 1011mb 56f 56f
9:48am 15 18 mph - 56f 56f
9:42am 10 16 mph - 56f 56f
9:36am 10 18 mph - 56f 55f
9:30am 11 15 mph 1011.1mb 56f 55f
9:24am 11 18 mph 1011.1mb 56f 55f
9:18am 11 16 mph 1011mb 56f 55f
9:12am 14 18 mph 1010.9mb 56f 55f
9:06am 13 18 mph 1011mb 56f 55f
9:00am 17 20 mph 1011mb 56f 55f
8:54am 17 22 mph 1011.1mb 56f 55f
8:48am 15 23 mph 1011mb 56f 55f
8:42am 11 20 mph 1011.1mb 56f 55f
8:36am 14 17 mph 1011mb 56f 55f
8:30am 13 17 mph 1011.1mb 56f 55f
8:24am 15 18 mph 1011.1mb 56f 55f
8:18am 13 16 mph 1011.1mb 56f 55f
8:12am 14 17 mph 1011.2mb 56f 55f
8:06am 15 21 mph 1011.1mb 56f 55f
8:00am 14 18 mph 1011mb 56f 55f
7:54am 13 17 mph 1011mb 56f 55f
7:48am 14 17 mph 1010.9mb 56f 55f
7:42am 15 18 mph 1010.8mb 56f 55f
7:36am 14 18 mph 1010.8mb 56f 55f
7:30am 14 18 mph 1010.6mb 56f 56f
7:24am 9 15 mph 1010.6mb 56f 56f
7:18am 13 15 mph 1010.7mb 56f 55f
7:12am 8 16 mph 1010.9mb 56f 56f
7:06am 10 14 mph 1010.9mb 56f 55f
7:00am 11 18 mph 1010.9mb 56f 55f
6:54am 17 22 mph 1010.8mb 56f 55f
6:48am 15 20 mph 1010.8mb 56f 55f
6:42am 10 14 mph 1010.8mb 56f 56f
6:36am 11 16 mph 1010.7mb 56f 56f
6:30am 13 18 mph 1010.6mb 56f 56f
6:24am 11 16 mph 1010.7mb 56f 56f
6:18am 11 16 mph 1010.8mb 56f 55f
6:12am 14 21 mph 1010.8mb 56f 56f
6:06am 13 17 mph 1010.9mb 56f 56f
6:00am 8 11 mph 1011.1mb 56f 56f
5:54am 11 16 mph 1011.2mb 57f 56f
5:48am 15 20 mph 1011mb 57f 55f
5:42am 10 18 mph 1011mb 57f 55f
5:36am 9 11 mph 1011.2mb 57f 55f
5:30am 9 13 mph 1011.2mb 57f 56f
5:24am 10 18 mph 1011mb 57f 56f
5:18am 13 16 mph 1010.8mb 57f 56f